Earl Shilton, United Kingdom
Current Conditions -  °F | °C
As of 8:20 AM on Tuesday 27 Jan 2015 (Local Time) from EGBE Reporting Station
Clear Clear  
Wind Chill: 32°   Ceiling: Unl
Heat Index: 37°   Visibility: 6mi
Dew Point: 37°   Wind: 7mph
Humidity: 100%   Direction: 220°SW
Pressure: 30.33"   Gusts: NA
Location:  52.58°N, 1.32°W
Report Text: EGBE 270820Z 22006KT CAVOK 03/03 Q1027
Loading
Personal Weather Stations






























Interactive Weather Map New forecast layout! Learn more

10-Day Weather Forecast

Advertisements
Track Severe Weather on mobile